createdAt,value
2022-10-06T00:01:28.009Z,8.63
2022-10-06T00:03:54.694Z,8.82
2022-10-06T00:06:21.218Z,7.90
2022-10-06T00:08:47.775Z,8.25
2022-10-06T00:11:15.051Z,8.35
2022-10-06T00:13:41.940Z,8.18
2022-10-06T00:16:10.497Z,9.43
2022-10-06T00:18:37.091Z,8.10
2022-10-06T00:21:04.232Z,10.00
2022-10-06T00:23:30.964Z,8.52
2022-10-06T00:25:58.409Z,7.60
2022-10-06T00:28:25.572Z,9.02
2022-10-06T00:30:53.600Z,9.55
2022-10-06T00:33:20.322Z,8.15
2022-10-06T00:35:46.855Z,9.20
2022-10-06T00:38:14.390Z,7.93
2022-10-06T00:40:48.408Z,10.05
2022-10-06T00:43:49.100Z,8.88
2022-10-06T00:46:16.389Z,8.20
2022-10-06T00:48:43.096Z,8.40
2022-10-06T00:51:09.875Z,8.77
2022-10-06T00:53:36.385Z,9.23
2022-10-06T00:56:02.950Z,8.30
2022-10-06T00:58:29.871Z,8.40
2022-10-06T01:00:56.734Z,8.40
2022-10-06T01:03:34.702Z,8.05
2022-10-06T01:06:02.107Z,8.27
2022-10-06T01:08:29.143Z,7.72
2022-10-06T01:10:55.867Z,9.25
2022-10-06T01:13:22.433Z,9.30
2022-10-06T01:16:10.144Z,9.50
2022-10-06T01:18:37.364Z,8.15
2022-10-06T01:21:06.089Z,8.52
2022-10-06T01:23:32.829Z,8.55
2022-10-06T01:25:59.369Z,9.13
2022-10-06T01:28:26.461Z,8.32
2022-10-06T01:30:54.359Z,7.93
2022-10-06T01:33:21.512Z,7.87
2022-10-06T01:35:51.756Z,8.43
2022-10-06T01:38:18.302Z,8.43
2022-10-06T01:40:45.094Z,8.23
2022-10-06T01:43:11.745Z,8.35
2022-10-06T01:45:38.375Z,8.93
2022-10-06T01:48:05.249Z,7.82
2022-10-06T01:50:31.798Z,8.73
2022-10-06T01:52:58.329Z,8.45
2022-10-06T01:55:25.271Z,8.57
2022-10-06T01:57:51.950Z,9.77
2022-10-06T02:00:18.558Z,9.57
2022-10-06T02:02:45.109Z,9.40
2022-10-06T02:05:11.673Z,9.57
2022-10-06T02:07:38.416Z,10.85
2022-10-06T02:10:05.545Z,10.52
2022-10-06T02:12:32.168Z,11.57
2022-10-06T02:14:58.686Z,10.38
2022-10-06T02:17:25.263Z,10.23
2022-10-06T02:19:51.793Z,10.57
2022-10-06T02:22:18.351Z,9.75
2022-10-06T02:24:45.028Z,11.25
2022-10-06T02:27:11.568Z,10.73
2022-10-06T02:29:38.083Z,10.43
2022-10-06T02:32:05.166Z,10.45
2022-10-06T02:34:31.691Z,10.88
2022-10-06T02:36:58.228Z,11.05
2022-10-06T02:39:24.746Z,11.10
2022-10-06T02:41:51.291Z,10.57
2022-10-06T02:44:18.099Z,10.80
2022-10-06T02:46:44.740Z,10.35
2022-10-06T02:49:11.417Z,10.43
2022-10-06T02:51:37.957Z,10.57
2022-10-06T02:54:04.541Z,11.32
2022-10-06T02:56:31.067Z,10.55
2022-10-06T02:58:57.591Z,10.85
2022-10-06T03:01:25.792Z,10.25
2022-10-06T03:03:52.609Z,10.65
2022-10-06T03:06:23.984Z,10.20
2022-10-06T03:08:50.637Z,10.73
2022-10-06T03:11:19.399Z,10.70
2022-10-06T03:13:49.860Z,10.38
2022-10-06T03:16:20.314Z,11.15
2022-10-06T03:18:51.036Z,10.65
2022-10-06T03:21:18.291Z,11.52
2022-10-06T03:23:45.375Z,11.48
2022-10-06T03:26:12.133Z,10.13
2022-10-06T03:28:40.086Z,10.90
2022-10-06T03:31:06.890Z,10.82
2022-10-06T03:33:34.652Z,11.32
2022-10-06T03:38:30.085Z,10.52
2022-10-06T03:41:06.642Z,10.48
2022-10-06T03:43:33.733Z,11.75
2022-10-06T03:46:03.276Z,11.40
2022-10-06T03:48:30.817Z,10.98
2022-10-06T03:50:58.678Z,11.50
2022-10-06T03:53:29.484Z,11.90
2022-10-06T03:56:22.542Z,10.60
2022-10-06T03:58:51.025Z,11.10
2022-10-06T04:01:25.864Z,10.95
2022-10-06T04:03:56.671Z,11.82
2022-10-06T04:06:23.845Z,11.00
2022-10-06T04:08:50.819Z,10.23
2022-10-06T04:11:21.043Z,10.43
2022-10-06T04:13:48.111Z,10.02
2022-10-06T04:16:15.681Z,11.32
2022-10-06T04:18:42.627Z,10.38
2022-10-06T04:21:09.149Z,11.77
2022-10-06T04:23:36.544Z,11.02
2022-10-06T04:26:06.336Z,10.93
2022-10-06T04:28:33.584Z,9.73
2022-10-06T04:31:00.698Z,9.93
2022-10-06T04:33:27.629Z,9.50
2022-10-06T04:35:58.341Z,9.60
2022-10-06T04:38:24.934Z,9.10
2022-10-06T04:40:51.467Z,10.20
2022-10-06T04:43:18.004Z,9.95
2022-10-06T04:45:44.580Z,9.50
2022-10-06T04:48:11.121Z,9.88
2022-10-06T04:50:37.664Z,9.95
2022-10-06T04:53:04.195Z,10.32
2022-10-06T04:55:30.731Z,10.75
2022-10-06T04:57:57.255Z,10.63
2022-10-06T05:00:25.160Z,10.40
2022-10-06T05:02:57.643Z,10.88
2022-10-06T05:05:24.238Z,10.57
2022-10-06T05:07:50.761Z,10.40
2022-10-06T05:10:17.473Z,10.75
2022-10-06T05:12:44.144Z,11.18
2022-10-06T05:15:10.855Z,10.25
2022-10-06T05:17:37.380Z,10.52
2022-10-06T05:20:04.113Z,9.98
2022-10-06T05:22:30.646Z,9.80
2022-10-06T05:24:57.206Z,10.98
2022-10-06T05:27:23.864Z,10.55
2022-10-06T05:29:50.469Z,11.40
2022-10-06T05:32:17.155Z,10.43
2022-10-06T05:34:43.801Z,11.20
2022-10-06T05:37:10.463Z,10.45
2022-10-06T05:39:37.030Z,11.60
2022-10-06T05:42:03.886Z,10.38
2022-10-06T05:44:30.406Z,10.73
2022-10-06T05:46:56.927Z,9.38
2022-10-06T05:49:24.058Z,9.80
2022-10-06T05:51:50.633Z,9.98
2022-10-06T05:54:17.215Z,10.02
2022-10-06T05:56:44.165Z,10.32
2022-10-06T05:59:10.722Z,9.65
2022-10-06T06:01:40.025Z,9.98
2022-10-06T06:04:08.470Z,10.80
2022-10-06T06:06:42.675Z,10.18
2022-10-06T06:09:16.848Z,11.02
2022-10-06T06:11:45.079Z,11.23
2022-10-06T06:14:13.016Z,11.35
2022-10-06T06:16:40.100Z,11.18
2022-10-06T06:19:07.505Z,10.55
2022-10-06T06:21:34.205Z,11.45
2022-10-06T06:24:00.742Z,11.40
2022-10-06T06:26:28.870Z,11.45
2022-10-06T06:29:03.937Z,11.65
2022-10-06T06:31:32.007Z,11.63
2022-10-06T06:33:59.488Z,11.85
2022-10-06T06:36:35.965Z,11.45
2022-10-06T06:39:07.787Z,12.25
2022-10-06T06:41:38.922Z,11.65
2022-10-06T06:44:07.313Z,12.02
2022-10-06T06:49:05.840Z,12.07
2022-10-06T06:51:34.521Z,12.35
2022-10-06T06:54:02.575Z,11.25
2022-10-06T06:56:29.694Z,12.65
2022-10-06T06:58:56.294Z,11.93
2022-10-06T07:01:23.101Z,12.13
2022-10-06T07:03:58.276Z,11.67
2022-10-06T07:06:28.573Z,11.10
2022-10-06T07:08:56.761Z,11.65
2022-10-06T07:14:08.561Z,11.40
2022-10-06T07:16:53.747Z,12.25
2022-10-06T07:19:39.857Z,11.12
2022-10-06T07:22:27.663Z,10.75
2022-10-06T07:25:07.140Z,10.95
2022-10-06T07:27:51.115Z,11.52
2022-10-06T07:30:22.654Z,12.23
2022-10-06T07:32:50.237Z,10.70
2022-10-06T07:35:17.728Z,11.05
2022-10-06T07:37:44.292Z,10.40
2022-10-06T07:40:11.156Z,10.77
2022-10-06T07:42:48.499Z,12.13
2022-10-06T07:45:44.998Z,10.70
2022-10-06T07:48:20.042Z,11.27
2022-10-06T07:50:50.558Z,10.98
2022-10-06T07:53:17.969Z,11.80
2022-10-06T07:58:17.803Z,12.45
2022-10-06T08:00:44.966Z,11.98
2022-10-06T08:03:12.533Z,11.90
2022-10-06T08:05:39.188Z,11.70
2022-10-06T08:08:06.359Z,12.37
2022-10-06T08:10:32.942Z,11.27
2022-10-06T08:12:59.526Z,11.77
2022-10-06T08:15:26.058Z,11.47
2022-10-06T08:17:54.197Z,11.80
2022-10-06T08:20:20.759Z,12.73
2022-10-06T08:22:47.799Z,13.73
2022-10-06T08:25:14.854Z,12.20
2022-10-06T08:27:44.202Z,11.85
2022-10-06T08:30:11.212Z,12.40
2022-10-06T08:32:37.784Z,13.38
2022-10-06T08:35:04.570Z,12.43
2022-10-06T08:37:31.608Z,12.05
2022-10-06T08:39:59.244Z,12.07
2022-10-06T08:42:34.439Z,12.25
2022-10-06T08:45:03.850Z,11.93
2022-10-06T08:47:33.773Z,11.43
2022-10-06T08:50:00.388Z,11.73
2022-10-06T08:52:35.991Z,12.32
2022-10-06T08:55:50.284Z,13.38
2022-10-06T08:58:38.372Z,14.43
2022-10-06T09:01:09.493Z,13.27
2022-10-06T09:03:37.779Z,13.20
2022-10-06T09:06:12.573Z,13.00
2022-10-06T09:08:45.062Z,15.23
2022-10-06T09:11:33.425Z,14.18
2022-10-06T09:14:06.413Z,12.40
2022-10-06T09:16:35.636Z,12.23
2022-10-06T09:19:09.552Z,13.20
2022-10-06T09:21:42.082Z,14.07
2022-10-06T09:24:33.800Z,17.77
2022-10-06T09:27:00.372Z,15.40
2022-10-06T09:29:31.746Z,15.03
2022-10-06T09:31:59.214Z,14.73
2022-10-06T09:37:01.732Z,14.43
2022-10-06T09:39:36.475Z,14.43
2022-10-06T09:42:07.813Z,14.70
2022-10-06T09:44:50.112Z,14.80
2022-10-06T09:47:36.497Z,13.85
2022-10-06T09:50:10.103Z,12.65
2022-10-06T09:52:36.676Z,12.10
2022-10-06T09:55:17.171Z,11.63
2022-10-06T09:57:51.245Z,10.52
2022-10-06T10:00:31.635Z,11.10
2022-10-06T10:03:02.761Z,11.07
2022-10-06T10:05:30.494Z,10.80
2022-10-06T10:08:17.376Z,9.68
2022-10-06T10:10:44.000Z,11.52
2022-10-06T10:13:24.490Z,9.83
2022-10-06T10:15:59.087Z,9.80
2022-10-06T10:18:27.452Z,9.50
2022-10-06T10:21:05.179Z,10.82
2022-10-06T10:23:42.626Z,9.85
2022-10-06T10:26:35.853Z,10.80
2022-10-06T10:29:32.758Z,9.73
2022-10-06T10:32:18.599Z,9.25
2022-10-06T10:35:21.057Z,10.25
2022-10-06T10:38:03.627Z,9.38
2022-10-06T10:40:37.475Z,8.05
2022-10-06T10:43:10.619Z,8.15
2022-10-06T10:45:42.825Z,8.88
2022-10-06T10:48:25.117Z,9.20
2022-10-06T10:50:59.627Z,8.90
2022-10-06T10:53:38.921Z,9.63
2022-10-06T10:56:09.394Z,10.13
2022-10-06T11:01:35.195Z,9.73
2022-10-06T11:04:02.326Z,10.60
2022-10-06T11:06:39.601Z,8.05
2022-10-06T11:09:09.270Z,7.87
2022-10-06T11:11:54.372Z,9.07
2022-10-06T11:14:52.838Z,9.02
2022-10-06T11:17:35.380Z,10.75
2022-10-06T11:20:41.684Z,9.68
2022-10-06T11:23:25.371Z,9.65
2022-10-06T11:26:13.752Z,8.23
2022-10-06T11:28:51.924Z,9.82
2022-10-06T11:34:04.633Z,9.15
2022-10-06T11:36:56.135Z,9.38
2022-10-06T11:39:44.818Z,9.10
2022-10-06T11:42:23.456Z,9.10
2022-10-06T11:45:05.798Z,9.75
2022-10-06T11:47:36.502Z,9.48
2022-10-06T11:50:24.279Z,8.45
2022-10-06T11:52:52.304Z,9.38
2022-10-06T11:55:20.392Z,8.30
2022-10-06T12:01:02.390Z,8.90
2022-10-06T12:03:29.112Z,8.18
2022-10-06T12:05:56.768Z,8.17
2022-10-06T12:08:36.663Z,9.45
2022-10-06T12:11:03.216Z,7.90
2022-10-06T12:17:09.414Z,8.18
2022-10-06T12:19:24.824Z,7.93
2022-10-06T12:21:57.273Z,8.57
2022-10-06T12:25:10.665Z,9.38
2022-10-06T12:27:47.473Z,8.25
2022-10-06T12:30:20.026Z,8.48
2022-10-06T12:32:50.403Z,8.82
2022-10-06T12:35:19.202Z,8.50
2022-10-06T12:37:54.003Z,7.85
2022-10-06T12:40:46.839Z,7.57
2022-10-06T12:43:21.578Z,8.20
2022-10-06T12:46:01.048Z,7.90
2022-10-06T12:48:37.648Z,8.30
2022-10-06T12:51:13.049Z,6.72
2022-10-06T12:53:51.481Z,9.50
2022-10-06T12:56:31.977Z,7.75
2022-10-06T12:58:58.817Z,7.25
2022-10-06T13:01:26.603Z,8.35
2022-10-06T13:03:53.263Z,8.30
2022-10-06T13:06:24.681Z,8.43
2022-10-06T13:09:12.690Z,7.43
2022-10-06T13:11:39.269Z,7.82
2022-10-06T13:14:24.801Z,7.87
2022-10-06T13:16:53.061Z,7.50
2022-10-06T13:19:25.386Z,6.95
2022-10-06T13:21:51.949Z,7.43
2022-10-06T13:24:23.186Z,7.20
2022-10-06T13:26:51.805Z,6.55
2022-10-06T13:29:22.898Z,6.87
2022-10-06T13:31:53.960Z,6.97
2022-10-06T13:34:33.360Z,8.18
2022-10-06T13:37:00.210Z,7.03
2022-10-06T13:39:31.568Z,6.57
2022-10-06T13:42:04.506Z,6.57
2022-10-06T13:44:42.163Z,6.80
2022-10-06T13:47:19.425Z,7.20
2022-10-06T13:49:58.833Z,6.87
2022-10-06T13:52:34.088Z,6.60
2022-10-06T13:55:01.450Z,6.80
2022-10-06T13:57:48.629Z,7.90
2022-10-06T14:00:15.252Z,6.72
2022-10-06T14:02:46.774Z,7.17
2022-10-06T14:05:23.577Z,7.35
2022-10-06T14:07:50.380Z,8.13
2022-10-06T14:10:31.803Z,7.00
2022-10-06T14:13:00.585Z,7.07
2022-10-06T14:15:29.622Z,7.57
2022-10-06T14:18:00.799Z,6.87
2022-10-06T14:20:36.058Z,7.37
2022-10-06T14:23:02.603Z,8.00
2022-10-06T14:25:29.198Z,8.20
2022-10-06T14:27:55.858Z,7.17
2022-10-06T14:30:22.455Z,7.75
2022-10-06T14:32:49.684Z,8.13
2022-10-06T14:35:16.231Z,7.68
2022-10-06T14:37:42.772Z,7.60
2022-10-06T14:40:12.203Z,7.53
2022-10-06T14:42:39.013Z,6.85
2022-10-06T14:45:06.041Z,6.90
2022-10-06T14:47:32.619Z,7.28
2022-10-06T14:49:59.234Z,6.83
2022-10-06T14:52:25.898Z,7.97
2022-10-06T14:54:52.480Z,6.77
2022-10-06T14:57:21.721Z,7.03
2022-10-06T14:59:48.288Z,7.43
2022-10-06T15:02:14.822Z,8.00
2022-10-06T15:04:41.371Z,8.80
2022-10-06T15:07:26.487Z,9.27
2022-10-06T15:09:53.048Z,8.43
2022-10-06T15:12:19.567Z,6.53
2022-10-06T15:14:47.186Z,7.15
2022-10-06T15:17:13.745Z,8.10
2022-10-06T15:19:40.827Z,8.00
2022-10-06T15:22:08.903Z,7.97
2022-10-06T15:24:35.490Z,7.12
2022-10-06T15:27:24.668Z,7.23
2022-10-06T15:29:51.760Z,6.57
2022-10-06T15:32:18.283Z,7.07
2022-10-06T15:34:45.025Z,6.62
2022-10-06T15:37:11.546Z,5.20
2022-10-06T15:39:38.185Z,3.90
2022-10-06T15:42:05.245Z,4.67
2022-10-06T15:44:32.086Z,4.20
2022-10-06T15:46:58.775Z,5.87
2022-10-06T15:49:26.341Z,5.70
2022-10-06T15:54:23.594Z,5.27
2022-10-06T15:56:51.391Z,5.68
2022-10-06T15:59:19.022Z,5.75
2022-10-06T16:01:47.819Z,5.57
2022-10-06T16:04:45.004Z,6.22
2022-10-06T16:07:12.856Z,5.43
2022-10-06T16:09:43.407Z,5.43
2022-10-06T16:12:11.340Z,5.12
2022-10-06T16:14:38.019Z,5.68
2022-10-06T16:17:05.619Z,5.40
2022-10-06T16:19:32.395Z,5.28
2022-10-06T16:21:59.836Z,5.82
2022-10-06T16:24:26.685Z,5.53
2022-10-06T16:26:53.441Z,6.30
2022-10-06T16:29:21.732Z,6.45
2022-10-06T16:31:48.488Z,5.40
2022-10-06T16:34:15.133Z,6.07
2022-10-06T16:36:41.920Z,7.10
2022-10-06T16:39:14.097Z,6.12
2022-10-06T16:41:40.685Z,6.22
2022-10-06T16:44:07.241Z,6.57
2022-10-06T16:46:33.863Z,5.82
2022-10-06T16:49:01.153Z,6.70
2022-10-06T16:51:32.904Z,6.45
2022-10-06T16:54:01.114Z,6.18
2022-10-06T16:56:32.053Z,6.03
2022-10-06T16:59:00.185Z,6.82
2022-10-06T17:01:28.330Z,6.22
2022-10-06T17:04:06.689Z,6.78
2022-10-06T17:06:39.227Z,6.65
2022-10-06T17:09:08.241Z,6.68
2022-10-06T17:11:35.449Z,7.50
2022-10-06T17:14:02.181Z,7.15
2022-10-06T17:16:31.546Z,6.30
2022-10-06T17:18:58.514Z,6.68
2022-10-06T17:21:44.949Z,6.18
2022-10-06T17:24:11.896Z,6.60
2022-10-06T17:26:39.455Z,6.70
2022-10-06T17:31:38.082Z,7.10
2022-10-06T17:34:08.446Z,6.75
2022-10-06T17:36:35.068Z,6.85
2022-10-06T17:39:02.011Z,5.90
2022-10-06T17:41:33.449Z,6.37
2022-10-06T17:44:03.137Z,6.55
2022-10-06T17:46:31.307Z,6.72
2022-10-06T17:48:57.936Z,7.12
2022-10-06T17:51:25.631Z,6.85
2022-10-06T17:53:53.387Z,6.45
2022-10-06T17:56:24.106Z,6.97
2022-10-06T17:58:54.781Z,6.20
2022-10-06T18:01:22.143Z,6.68
2022-10-06T18:03:48.784Z,6.93
2022-10-06T18:06:17.107Z,7.80
2022-10-06T18:08:44.789Z,7.43
2022-10-06T18:13:58.347Z,8.18
2022-10-06T18:16:26.857Z,8.18
2022-10-06T18:18:54.496Z,8.15
2022-10-06T18:23:48.987Z,8.23
2022-10-06T18:26:17.570Z,9.10
2022-10-06T18:28:45.759Z,8.70
2022-10-06T18:31:13.483Z,7.72
2022-10-06T18:36:26.607Z,8.85
2022-10-06T18:38:55.276Z,9.48
2022-10-06T18:41:22.803Z,9.43
2022-10-06T18:43:49.383Z,8.45
2022-10-06T18:46:35.463Z,9.32
2022-10-06T18:49:11.250Z,9.75
2022-10-06T18:51:48.911Z,10.23
2022-10-06T18:54:17.424Z,9.60
2022-10-06T18:56:47.702Z,8.95
2022-10-06T18:59:14.483Z,9.10
2022-10-06T19:01:42.737Z,9.23
2022-10-06T19:04:10.100Z,9.52
2022-10-06T19:06:37.954Z,11.63
2022-10-06T19:09:05.131Z,12.02
2022-10-06T19:11:42.256Z,11.40
2022-10-06T19:14:09.136Z,11.10
2022-10-06T19:16:35.987Z,11.10
2022-10-06T19:19:04.252Z,11.50
2022-10-06T19:21:31.443Z,10.90
2022-10-06T19:24:01.066Z,11.48
2022-10-06T19:26:27.716Z,11.23
2022-10-06T19:28:54.305Z,10.25
2022-10-06T19:31:20.975Z,10.60
2022-10-06T19:33:47.726Z,11.30
2022-10-06T19:36:16.044Z,11.27
2022-10-06T19:38:42.696Z,10.32
2022-10-06T19:41:27.968Z,12.40
2022-10-06T19:43:54.562Z,11.65
2022-10-06T19:46:21.417Z,10.23
2022-10-06T19:48:54.695Z,11.10
2022-10-06T19:51:22.211Z,9.95
2022-10-06T19:53:51.237Z,10.50
2022-10-06T19:56:18.953Z,10.07
2022-10-06T20:01:12.102Z,9.20
2022-10-06T20:03:42.002Z,9.33
2022-10-06T20:06:11.369Z,10.50
2022-10-06T20:08:38.327Z,9.30
2022-10-06T20:11:06.546Z,8.90
2022-10-06T20:13:34.521Z,10.02
2022-10-06T20:16:01.962Z,9.07
2022-10-06T20:18:28.714Z,9.60
2022-10-06T20:20:56.758Z,10.37
2022-10-06T20:23:23.299Z,10.30
2022-10-06T20:25:49.844Z,10.43
2022-10-06T20:28:16.410Z,11.25
2022-10-06T20:30:49.687Z,10.70
2022-10-06T20:33:16.681Z,11.00
2022-10-06T20:35:43.430Z,12.05
2022-10-06T20:38:10.057Z,10.77
2022-10-06T20:40:49.044Z,10.18
2022-10-06T20:43:15.650Z,10.45
2022-10-06T20:45:42.167Z,9.13
2022-10-06T20:48:08.704Z,9.75
2022-10-06T20:50:35.275Z,10.45
2022-10-06T20:53:01.817Z,10.43
2022-10-06T20:55:28.438Z,10.73
2022-10-06T20:57:55.010Z,10.15
2022-10-06T21:00:24.334Z,8.93
2022-10-06T21:02:50.896Z,9.75
2022-10-06T21:05:17.478Z,9.75
2022-10-06T21:07:44.231Z,9.88
2022-10-06T21:10:10.936Z,10.65
2022-10-06T21:12:37.449Z,11.73
2022-10-06T21:15:04.318Z,10.30
2022-10-06T21:17:30.850Z,11.95
2022-10-06T21:19:57.375Z,10.98
2022-10-06T21:22:23.905Z,11.68
2022-10-06T21:24:50.431Z,12.23
2022-10-06T21:27:18.350Z,12.37
2022-10-06T21:29:44.959Z,11.80
2022-10-06T21:32:11.472Z,12.50
2022-10-06T21:34:39.306Z,12.30
2022-10-06T21:37:05.960Z,12.15
2022-10-06T21:39:32.493Z,12.50
2022-10-06T21:41:59.046Z,13.05
2022-10-06T21:44:25.622Z,11.88
2022-10-06T21:46:53.620Z,12.55
2022-10-06T21:49:21.360Z,12.52
2022-10-06T21:54:14.973Z,12.50
2022-10-06T21:56:41.511Z,12.55
2022-10-06T21:59:08.061Z,11.60
2022-10-06T22:01:36.248Z,13.20
2022-10-06T22:04:03.015Z,12.63
2022-10-06T22:06:30.730Z,12.32
2022-10-06T22:11:25.473Z,12.05
2022-10-06T22:13:54.464Z,12.77
2022-10-06T22:16:22.061Z,12.95
2022-10-06T22:18:48.690Z,11.75
2022-10-06T22:21:21.705Z,11.05
2022-10-06T22:23:53.412Z,10.32
2022-10-06T22:26:19.954Z,12.77
2022-10-06T22:28:47.641Z,9.88
2022-10-06T22:33:40.834Z,10.20
2022-10-06T22:36:07.849Z,12.20
2022-10-06T22:38:34.531Z,11.82
2022-10-06T22:41:01.561Z,11.48
2022-10-06T22:43:28.237Z,10.48
2022-10-06T22:45:54.798Z,11.98
2022-10-06T22:48:21.398Z,11.07
2022-10-06T22:50:48.310Z,10.70
2022-10-06T22:53:16.049Z,10.88
2022-10-06T22:58:09.040Z,10.73
2022-10-06T23:00:36.066Z,10.93
2022-10-06T23:03:02.783Z,10.45
2022-10-06T23:05:29.345Z,10.55
2022-10-06T23:07:55.864Z,10.55
2022-10-06T23:10:22.376Z,11.05
2022-10-06T23:12:48.900Z,10.40
2022-10-06T23:15:15.462Z,9.98
2022-10-06T23:17:42.599Z,10.95
2022-10-06T23:20:09.579Z,10.15
2022-10-06T23:22:36.111Z,10.20
2022-10-06T23:25:02.686Z,9.98
2022-10-06T23:27:29.188Z,9.20
2022-10-06T23:29:55.699Z,9.88
2022-10-06T23:32:22.221Z,10.20
2022-10-06T23:34:48.759Z,10.05
2022-10-06T23:37:15.345Z,10.13
2022-10-06T23:39:41.854Z,10.80
2022-10-06T23:42:09.704Z,9.52
2022-10-06T23:44:40.177Z,10.38
2022-10-06T23:47:06.811Z,10.98
2022-10-06T23:49:33.764Z,9.57
2022-10-06T23:52:01.228Z,10.60
2022-10-06T23:54:27.738Z,9.98
2022-10-06T23:56:55.605Z,10.65
2022-10-06T23:59:22.599Z,10.13
